sensor_id;sensor_type;location;lat;lon;timestamp;pressure;altitude;pressure_sealevel;temperature;humidity
5883;BME280;2967;51.488;6.618;2023-02-11T00:03:25;103169.09;;;8.00;100.00
5883;BME280;2967;51.488;6.618;2023-02-11T00:08:28;103158.19;;;7.70;100.00
5883;BME280;2967;51.488;6.618;2023-02-11T00:13:32;103138.84;;;7.71;100.00
5883;BME280;2967;51.488;6.618;2023-02-11T00:18:35;103154.16;;;8.01;100.00
5883;BME280;2967;51.488;6.618;2023-02-11T00:23:37;103151.53;;;8.02;100.00
5883;BME280;2967;51.488;6.618;2023-02-11T00:28:42;103155.56;;;8.23;100.00
5883;BME280;2967;51.488;6.618;2023-02-11T00:33:45;103157.34;;;8.22;100.00
5883;BME280;2967;51.488;6.618;2023-02-11T00:38:48;103160.00;;;8.21;100.00
5883;BME280;2967;51.488;6.618;2023-02-11T00:43:52;103149.03;;;7.93;100.00
5883;BME280;2967;51.488;6.618;2023-02-11T00:48:55;103137.06;;;7.71;100.00
5883;BME280;2967;51.488;6.618;2023-02-11T00:53:58;103115.16;;;7.69;100.00
5883;BME280;2967;51.488;6.618;2023-02-11T00:59:02;103136.47;;;8.09;100.00
5883;BME280;2967;51.488;6.618;2023-02-11T01:04:05;103134.03;;;7.97;100.00
5883;BME280;2967;51.488;6.618;2023-02-11T01:09:07;103138.44;;;7.96;100.00
5883;BME280;2967;51.488;6.618;2023-02-11T01:14:11;103142.59;;;8.09;100.00
5883;BME280;2967;51.488;6.618;2023-02-11T01:19:14;103091.53;;;7.65;100.00
5883;BME280;2967;51.488;6.618;2023-02-11T01:24:19;103150.47;;;8.11;100.00
5883;BME280;2967;51.488;6.618;2023-02-11T01:29:23;103147.75;;;8.17;100.00
5883;BME280;2967;51.488;6.618;2023-02-11T01:34:28;103155.47;;;8.29;100.00
5883;BME280;2967;51.488;6.618;2023-02-11T01:39:31;103141.63;;;7.61;100.00
5883;BME280;2967;51.488;6.618;2023-02-11T01:44:37;103128.47;;;7.61;100.00
5883;BME280;2967;51.488;6.618;2023-02-11T01:49:45;103121.59;;;7.54;100.00
5883;BME280;2967;51.488;6.618;2023-02-11T01:54:53;103116.03;;;7.70;100.00
5883;BME280;2967;51.488;6.618;2023-02-11T02:05:51;103091.88;;;7.44;100.00
5883;BME280;2967;51.488;6.618;2023-02-11T02:10:55;103109.19;;;7.60;100.00
5883;BME280;2967;51.488;6.618;2023-02-11T02:16:03;103123.41;;;7.49;100.00
5883;BME280;2967;51.488;6.618;2023-02-11T02:26:53;103004.13;;;6.86;100.00
5883;BME280;2967;51.488;6.618;2023-02-11T02:32:28;103103.97;;;7.57;100.00
5883;BME280;2967;51.488;6.618;2023-02-11T02:37:39;103098.84;;;7.48;100.00
5883;BME280;2967;51.488;6.618;2023-02-11T02:42:43;103097.88;;;7.52;100.00
5883;BME280;2967;51.488;6.618;2023-02-11T02:47:48;103101.75;;;7.29;100.00
5883;BME280;2967;51.488;6.618;2023-02-11T02:52:56;103107.53;;;7.53;100.00
5883;BME280;2967;51.488;6.618;2023-02-11T02:58:17;103097.00;;;7.53;100.00
5883;BME280;2967;51.488;6.618;2023-02-11T03:03:33;103083.19;;;7.36;100.00
5883;BME280;2967;51.488;6.618;2023-02-11T03:08:40;103073.94;;;7.11;100.00
5883;BME280;2967;51.488;6.618;2023-02-11T03:13:46;103081.59;;;7.26;100.00
5883;BME280;2967;51.488;6.618;2023-02-11T03:18:55;103068.56;;;7.19;100.00
5883;BME280;2967;51.488;6.618;2023-02-11T03:24:02;103063.38;;;7.14;100.00
5883;BME280;2967;51.488;6.618;2023-02-11T03:29:12;103045.44;;;6.81;100.00
5883;BME280;2967;51.488;6.618;2023-02-11T03:34:22;103084.34;;;7.20;100.00
5883;BME280;2967;51.488;6.618;2023-02-11T03:39:32;103077.38;;;7.16;100.00
5883;BME280;2967;51.488;6.618;2023-02-11T03:44:40;103071.00;;;7.32;100.00
5883;BME280;2967;51.488;6.618;2023-02-11T03:49:48;103075.06;;;7.53;100.00
5883;BME280;2967;51.488;6.618;2023-02-11T03:54:55;103079.09;;;7.73;100.00
5883;BME280;2967;51.488;6.618;2023-02-11T03:59:59;103066.63;;;7.31;100.00
5883;BME280;2967;51.488;6.618;2023-02-11T04:05:14;103057.75;;;6.79;100.00
5883;BME280;2967;51.488;6.618;2023-02-11T04:10:17;103051.91;;;7.18;100.00
5883;BME280;2967;51.488;6.618;2023-02-11T04:15:20;103055.25;;;7.29;100.00
5883;BME280;2967;51.488;6.618;2023-02-11T04:20:24;103063.78;;;7.45;100.00
5883;BME280;2967;51.488;6.618;2023-02-11T04:25:26;103071.53;;;7.54;100.00
5883;BME280;2967;51.488;6.618;2023-02-11T04:30:29;103073.94;;;7.11;100.00
5883;BME280;2967;51.488;6.618;2023-02-11T04:35:33;103081.13;;;7.56;100.00
5883;BME280;2967;51.488;6.618;2023-02-11T04:40:36;103108.06;;;7.74;100.00
5883;BME280;2967;51.488;6.618;2023-02-11T04:45:39;103093.84;;;7.84;100.00
5883;BME280;2967;51.488;6.618;2023-02-11T04:50:43;103099.94;;;7.88;100.00
5883;BME280;2967;51.488;6.618;2023-02-11T04:55:47;103080.09;;;7.66;100.00
5883;BME280;2967;51.488;6.618;2023-02-11T05:00:51;103074.81;;;7.66;100.00
5883;BME280;2967;51.488;6.618;2023-02-11T05:05:55;103071.91;;;7.30;100.00
5883;BME280;2967;51.488;6.618;2023-02-11T05:10:58;103083.91;;;7.49;100.00
5883;BME280;2967;51.488;6.618;2023-02-11T05:16:02;103081.03;;;7.62;100.00
5883;BME280;2967;51.488;6.618;2023-02-11T05:21:08;103061.22;;;7.42;100.00
5883;BME280;2967;51.488;6.618;2023-02-11T05:26:11;103067.47;;;7.33;100.00
5883;BME280;2967;51.488;6.618;2023-02-11T05:31:14;103070.41;;;7.14;100.00
5883;BME280;2967;51.488;6.618;2023-02-11T05:36:18;103038.78;;;7.17;100.00
5883;BME280;2967;51.488;6.618;2023-02-11T05:41:21;103059.69;;;7.26;100.00
5883;BME280;2967;51.488;6.618;2023-02-11T05:46:23;103072.09;;;7.19;100.00
5883;BME280;2967;51.488;6.618;2023-02-11T05:51:27;103066.06;;;7.11;100.00
5883;BME280;2967;51.488;6.618;2023-02-11T05:56:31;103055.81;;;6.92;100.00
5883;BME280;2967;51.488;6.618;2023-02-11T06:01:33;103048.16;;;6.74;100.00
5883;BME280;2967;51.488;6.618;2023-02-11T06:06:37;103052.81;;;7.17;100.00
5883;BME280;2967;51.488;6.618;2023-02-11T06:11:40;103056.22;;;7.24;100.00
5883;BME280;2967;51.488;6.618;2023-02-11T06:16:43;103062.13;;;7.36;100.00
5883;BME280;2967;51.488;6.618;2023-02-11T06:21:47;103062.94;;;7.43;100.00
5883;BME280;2967;51.488;6.618;2023-02-11T06:26:49;103073.03;;;7.14;100.00
5883;BME280;2967;51.488;6.618;2023-02-11T06:31:52;103079.16;;;7.16;100.00
5883;BME280;2967;51.488;6.618;2023-02-11T06:36:56;103078.38;;;7.09;100.00
5883;BME280;2967;51.488;6.618;2023-02-11T06:41:59;103068.69;;;7.11;100.00
5883;BME280;2967;51.488;6.618;2023-02-11T06:47:01;103079.03;;;7.23;100.00
5883;BME280;2967;51.488;6.618;2023-02-11T06:52:05;103079.72;;;7.36;100.00
5883;BME280;2967;51.488;6.618;2023-02-11T06:57:08;103079.50;;;7.49;100.00
5883;BME280;2967;51.488;6.618;2023-02-11T07:02:10;103084.66;;;7.55;100.00
5883;BME280;2967;51.488;6.618;2023-02-11T07:07:14;103087.34;;;7.52;100.00
5883;BME280;2967;51.488;6.618;2023-02-11T07:12:17;103086.97;;;7.20;100.00
5883;BME280;2967;51.488;6.618;2023-02-11T07:17:19;103083.69;;;7.61;100.00
5883;BME280;2967;51.488;6.618;2023-02-11T07:22:24;103091.84;;;7.47;100.00
5883;BME280;2967;51.488;6.618;2023-02-11T07:27:26;103091.22;;;7.32;100.00
5883;BME280;2967;51.488;6.618;2023-02-11T07:32:29;103102.31;;;7.49;100.00
5883;BME280;2967;51.488;6.618;2023-02-11T07:37:34;103107.03;;;7.29;100.00
5883;BME280;2967;51.488;6.618;2023-02-11T07:42:37;103099.13;;;7.30;100.00
5883;BME280;2967;51.488;6.618;2023-02-11T07:47:40;103112.84;;;7.52;100.00
5883;BME280;2967;51.488;6.618;2023-02-11T07:52:45;103110.56;;;7.26;100.00
5883;BME280;2967;51.488;6.618;2023-02-11T07:57:47;103105.22;;;7.34;100.00
5883;BME280;2967;51.488;6.618;2023-02-11T08:02:51;103106.94;;;7.35;100.00
5883;BME280;2967;51.488;6.618;2023-02-11T08:07:55;103124.03;;;7.64;100.00
5883;BME280;2967;51.488;6.618;2023-02-11T08:12:57;103117.88;;;7.65;100.00
5883;BME280;2967;51.488;6.618;2023-02-11T08:18:00;103119.22;;;7.90;100.00
5883;BME280;2967;51.488;6.618;2023-02-11T08:23:05;103122.13;;;7.73;100.00
5883;BME280;2967;51.488;6.618;2023-02-11T08:28:08;103127.09;;;7.91;100.00
5883;BME280;2967;51.488;6.618;2023-02-11T08:33:11;103142.78;;;7.99;100.00
5883;BME280;2967;51.488;6.618;2023-02-11T08:38:15;103142.50;;;8.15;100.00
5883;BME280;2967;51.488;6.618;2023-02-11T08:43:18;103141.00;;;8.01;100.00
5883;BME280;2967;51.488;6.618;2023-02-11T08:48:21;103140.78;;;8.13;100.00
5883;BME280;2967;51.488;6.618;2023-02-11T08:53:25;103138.91;;;8.21;100.00
5883;BME280;2967;51.488;6.618;2023-02-11T08:58:28;103130.22;;;8.14;100.00
5883;BME280;2967;51.488;6.618;2023-02-11T09:03:31;103140.03;;;8.06;100.00
5883;BME280;2967;51.488;6.618;2023-02-11T09:08:35;103155.75;;;8.11;100.00
5883;BME280;2967;51.488;6.618;2023-02-11T09:13:39;103165.34;;;8.15;100.00
5883;BME280;2967;51.488;6.618;2023-02-11T09:18:43;103178.72;;;8.03;100.00
5883;BME280;2967;51.488;6.618;2023-02-11T09:23:47;103175.94;;;8.13;100.00
5883;BME280;2967;51.488;6.618;2023-02-11T09:28:50;103175.88;;;8.16;100.00
5883;BME280;2967;51.488;6.618;2023-02-11T09:33:55;103171.16;;;8.36;100.00
5883;BME280;2967;51.488;6.618;2023-02-11T09:39:00;103178.22;;;8.34;100.00
5883;BME280;2967;51.488;6.618;2023-02-11T09:44:05;103192.53;;;8.68;100.00
5883;BME280;2967;51.488;6.618;2023-02-11T09:49:17;103189.06;;;8.15;100.00
5883;BME280;2967;51.488;6.618;2023-02-11T09:54:27;103184.16;;;8.47;100.00
5883;BME280;2967;51.488;6.618;2023-02-11T09:59:32;103209.81;;;8.36;100.00
5883;BME280;2967;51.488;6.618;2023-02-11T10:04:48;103191.13;;;7.98;100.00
5883;BME280;2967;51.488;6.618;2023-02-11T10:10:09;103215.00;;;8.43;100.00
5883;BME280;2967;51.488;6.618;2023-02-11T10:15:23;103227.03;;;8.58;100.00
5883;BME280;2967;51.488;6.618;2023-02-11T10:20:32;103222.38;;;8.22;100.00
5883;BME280;2967;51.488;6.618;2023-02-11T10:25:39;103219.59;;;8.32;100.00
5883;BME280;2967;51.488;6.618;2023-02-11T10:30:52;103220.94;;;8.54;100.00
5883;BME280;2967;51.488;6.618;2023-02-11T10:35:57;103224.84;;;8.81;100.00
5883;BME280;2967;51.488;6.618;2023-02-11T10:41:01;103234.59;;;8.76;100.00
5883;BME280;2967;51.488;6.618;2023-02-11T10:46:04;103232.75;;;8.82;100.00
5883;BME280;2967;51.488;6.618;2023-02-11T10:51:15;103240.75;;;8.76;100.00
5883;BME280;2967;51.488;6.618;2023-02-11T10:56:26;103235.91;;;8.99;100.00
5883;BME280;2967;51.488;6.618;2023-02-11T11:01:39;103229.31;;;8.77;100.00
5883;BME280;2967;51.488;6.618;2023-02-11T11:06:43;103237.53;;;9.06;100.00
5883;BME280;2967;51.488;6.618;2023-02-11T11:11:51;103239.25;;;9.09;100.00
5883;BME280;2967;51.488;6.618;2023-02-11T11:16:54;103246.03;;;9.22;100.00
5883;BME280;2967;51.488;6.618;2023-02-11T11:21:57;103242.81;;;9.08;100.00
5883;BME280;2967;51.488;6.618;2023-02-11T11:27:03;103260.06;;;9.24;100.00
5883;BME280;2967;51.488;6.618;2023-02-11T11:32:11;103252.97;;;9.26;100.00
5883;BME280;2967;51.488;6.618;2023-02-11T11:37:22;103244.00;;;9.34;100.00
5883;BME280;2967;51.488;6.618;2023-02-11T11:42:29;103248.59;;;9.25;100.00
5883;BME280;2967;51.488;6.618;2023-02-11T11:47:38;103244.13;;;9.28;100.00
5883;BME280;2967;51.488;6.618;2023-02-11T11:52:45;103236.38;;;9.60;100.00
5883;BME280;2967;51.488;6.618;2023-02-11T11:57:52;103231.72;;;9.71;100.00
5883;BME280;2967;51.488;6.618;2023-02-11T12:03:08;103225.72;;;9.65;100.00
5883;BME280;2967;51.488;6.618;2023-02-11T12:08:24;103237.78;;;9.76;100.00
5883;BME280;2967;51.488;6.618;2023-02-11T12:13:47;103238.53;;;9.81;100.00
5883;BME280;2967;51.488;6.618;2023-02-11T12:19:20;103246.34;;;9.87;100.00
5883;BME280;2967;51.488;6.618;2023-02-11T12:24:37;103239.31;;;9.86;100.00
5883;BME280;2967;51.488;6.618;2023-02-11T12:29:55;103241.88;;;9.89;100.00
5883;BME280;2967;51.488;6.618;2023-02-11T12:35:17;103233.22;;;9.83;100.00
5883;BME280;2967;51.488;6.618;2023-02-11T12:40:26;103230.72;;;9.77;100.00
5883;BME280;2967;51.488;6.618;2023-02-11T12:45:56;103226.81;;;9.94;100.00
5883;BME280;2967;51.488;6.618;2023-02-11T12:51:09;103220.78;;;9.88;100.00
5883;BME280;2967;51.488;6.618;2023-02-11T12:56:19;103231.09;;;9.98;100.00
5883;BME280;2967;51.488;6.618;2023-02-11T13:01:28;103226.81;;;9.94;100.00
5883;BME280;2967;51.488;6.618;2023-02-11T13:06:36;103216.03;;;10.03;100.00
5883;BME280;2967;51.488;6.618;2023-02-11T13:11:44;103209.84;;;10.01;100.00
5883;BME280;2967;51.488;6.618;2023-02-11T13:16:54;103216.59;;;10.16;100.00
5883;BME280;2967;51.488;6.618;2023-02-11T13:22:04;103215.25;;;9.97;100.00
5883;BME280;2967;51.488;6.618;2023-02-11T13:27:23;103215.97;;;10.06;100.00
5883;BME280;2967;51.488;6.618;2023-02-11T13:39:20;103194.97;;;9.99;100.00
5883;BME280;2967;51.488;6.618;2023-02-11T13:44:25;103193.16;;;9.99;100.00
5883;BME280;2967;51.488;6.618;2023-02-11T13:49:34;103229.94;;;10.11;100.00
5883;BME280;2967;51.488;6.618;2023-02-11T13:54:46;103229.81;;;10.16;100.00
5883;BME280;2967;51.488;6.618;2023-02-11T13:59:51;103223.16;;;10.35;100.00
5883;BME280;2967;51.488;6.618;2023-02-11T14:05:08;103211.56;;;10.40;100.00
5883;BME280;2967;51.488;6.618;2023-02-11T14:10:50;103206.50;;;10.64;100.00
5883;BME280;2967;51.488;6.618;2023-02-11T14:16:05;103200.41;;;10.61;100.00
5883;BME280;2967;51.488;6.618;2023-02-11T14:21:10;103209.22;;;10.93;100.00
5883;BME280;2967;51.488;6.618;2023-02-11T14:26:27;103199.69;;;11.18;100.00
5883;BME280;2967;51.488;6.618;2023-02-11T14:31:37;103193.50;;;11.18;100.00
5883;BME280;2967;51.488;6.618;2023-02-11T14:36:51;103210.16;;;11.23;100.00
5883;BME280;2967;51.488;6.618;2023-02-11T14:42:01;103207.69;;;11.15;100.00
5883;BME280;2967;51.488;6.618;2023-02-11T14:47:05;103203.94;;;10.61;100.00
5883;BME280;2967;51.488;6.618;2023-02-11T14:52:17;103215.78;;;10.80;100.00
5883;BME280;2967;51.488;6.618;2023-02-11T14:57:25;103214.50;;;10.93;100.00
5883;BME280;2967;51.488;6.618;2023-02-11T15:02:33;103215.81;;;10.79;100.00
5883;BME280;2967;51.488;6.618;2023-02-11T15:07:36;103217.97;;;10.65;100.00
5883;BME280;2967;51.488;6.618;2023-02-11T15:12:46;103220.66;;;10.62;100.00
5883;BME280;2967;51.488;6.618;2023-02-11T15:17:52;103181.38;;;10.47;100.00
5883;BME280;2967;51.488;6.618;2023-02-11T15:23:00;103223.16;;;10.35;100.00
5883;BME280;2967;51.488;6.618;2023-02-11T15:28:10;103222.00;;;10.46;100.00
5883;BME280;2967;51.488;6.618;2023-02-11T15:33:21;103225.44;;;10.49;100.00
5883;BME280;2967;51.488;6.618;2023-02-11T15:38:26;103209.03;;;10.36;100.00
5883;BME280;2967;51.488;6.618;2023-02-11T15:43:42;103229.69;;;10.20;100.00
5883;BME280;2967;51.488;6.618;2023-02-11T15:48:47;103230.19;;;10.36;100.00
5883;BME280;2967;51.488;6.618;2023-02-11T15:53:53;103235.97;;;10.51;100.00
5883;BME280;2967;51.488;6.618;2023-02-11T15:59:09;103239.47;;;10.53;100.00
5883;BME280;2967;51.488;6.618;2023-02-11T16:04:16;103240.22;;;10.56;100.00
5883;BME280;2967;51.488;6.618;2023-02-11T16:14:45;103236.50;;;10.30;100.00
5883;BME280;2967;51.488;6.618;2023-02-11T16:19:50;103239.63;;;10.45;100.00
5883;BME280;2967;51.488;6.618;2023-02-11T16:24:56;103246.16;;;10.33;100.00
5883;BME280;2967;51.488;6.618;2023-02-11T16:30:02;103252.16;;;10.39;100.00
5883;BME280;2967;51.488;6.618;2023-02-11T16:35:09;103266.41;;;9.96;100.00
5883;BME280;2967;51.488;6.618;2023-02-11T16:40:14;103267.97;;;10.06;100.00
5883;BME280;2967;51.488;6.618;2023-02-11T16:45:18;103270.41;;;10.15;100.00
5883;BME280;2967;51.488;6.618;2023-02-11T16:50:23;103270.50;;;10.10;100.00
5883;BME280;2967;51.488;6.618;2023-02-11T16:55:27;103275.69;;;10.15;100.00
5883;BME280;2967;51.488;6.618;2023-02-11T17:00:32;103283.63;;;10.15;100.00
5883;BME280;2967;51.488;6.618;2023-02-11T17:05:35;103286.38;;;10.10;100.00
5883;BME280;2967;51.488;6.618;2023-02-11T17:10:55;103283.00;;;10.04;100.00
5883;BME280;2967;51.488;6.618;2023-02-11T17:16:00;103294.28;;;10.12;100.00
5883;BME280;2967;51.488;6.618;2023-02-11T17:21:05;103290.41;;;9.87;100.00
5883;BME280;2967;51.488;6.618;2023-02-11T17:26:08;103305.78;;;10.11;100.00
5883;BME280;2967;51.488;6.618;2023-02-11T17:31:14;103301.84;;;9.89;100.00
5883;BME280;2967;51.488;6.618;2023-02-11T17:36:18;103303.06;;;9.73;100.00
5883;BME280;2967;51.488;6.618;2023-02-11T17:41:21;103305.50;;;9.82;100.00
5883;BME280;2967;51.488;6.618;2023-02-11T17:46:25;103310.44;;;9.59;100.00
5883;BME280;2967;51.488;6.618;2023-02-11T17:51:31;103311.34;;;9.58;100.00
5883;BME280;2967;51.488;6.618;2023-02-11T17:56:35;103321.81;;;9.61;100.00
5883;BME280;2967;51.488;6.618;2023-02-11T18:01:41;103330.47;;;9.69;100.00
5883;BME280;2967;51.488;6.618;2023-02-11T18:06:45;103271.91;;;9.46;100.00
5883;BME280;2967;51.488;6.618;2023-02-11T18:11:49;103345.72;;;9.96;100.00
5883;BME280;2967;51.488;6.618;2023-02-11T18:16:54;103351.81;;;10.02;100.00
5883;BME280;2967;51.488;6.618;2023-02-11T18:21:57;103364.50;;;9.84;100.00
5883;BME280;2967;51.488;6.618;2023-02-11T18:27:02;103345.91;;;9.88;100.00
5883;BME280;2967;51.488;6.618;2023-02-11T18:32:06;103347.38;;;10.03;100.00
5883;BME280;2967;51.488;6.618;2023-02-11T18:37:10;103347.38;;;10.03;100.00
5883;BME280;2967;51.488;6.618;2023-02-11T18:42:14;103349.63;;;9.80;100.00
5883;BME280;2967;51.488;6.618;2023-02-11T18:47:19;103365.63;;;9.27;100.00
5883;BME280;2967;51.488;6.618;2023-02-11T18:52:22;103364.19;;;9.58;100.00
5883;BME280;2967;51.488;6.618;2023-02-11T18:57:26;103368.75;;;9.50;100.00
5883;BME280;2967;51.488;6.618;2023-02-11T19:02:30;103366.44;;;9.32;100.00
5883;BME280;2967;51.488;6.618;2023-02-11T19:07:33;103373.41;;;9.36;100.00
5883;BME280;2967;51.488;6.618;2023-02-11T19:12:37;103368.81;;;8.97;100.00
5883;BME280;2967;51.488;6.618;2023-02-11T19:17:42;103375.81;;;9.01;100.00
5883;BME280;2967;51.488;6.618;2023-02-11T19:22:44;103383.19;;;9.32;100.00
5883;BME280;2967;51.488;6.618;2023-02-11T19:27:47;103393.69;;;9.35;100.00
5883;BME280;2967;51.488;6.618;2023-02-11T19:32:51;103388.22;;;9.44;100.00
5883;BME280;2967;51.488;6.618;2023-02-11T19:37:57;103399.03;;;9.32;100.00
5883;BME280;2967;51.488;6.618;2023-02-11T19:42:59;103401.75;;;9.28;100.00
5883;BME280;2967;51.488;6.618;2023-02-11T19:48:04;103412.91;;;9.42;100.00
5883;BME280;2967;51.488;6.618;2023-02-11T19:53:06;103420.63;;;9.54;100.00
5883;BME280;2967;51.488;6.618;2023-02-11T19:58:09;103427.22;;;9.30;100.00
5883;BME280;2967;51.488;6.618;2023-02-11T20:03:13;103426.97;;;9.44;100.00
5883;BME280;2967;51.488;6.618;2023-02-11T20:08:15;103429.69;;;9.41;100.00
5883;BME280;2967;51.488;6.618;2023-02-11T20:13:19;103431.34;;;9.46;100.00
5883;BME280;2967;51.488;6.618;2023-02-11T20:18:23;103437.19;;;9.63;100.00
5883;BME280;2967;51.488;6.618;2023-02-11T20:23:27;103440.63;;;9.67;100.00
5883;BME280;2967;51.488;6.618;2023-02-11T20:28:29;103439.41;;;9.37;100.00
5883;BME280;2967;51.488;6.618;2023-02-11T20:33:33;103446.97;;;9.57;100.00
5883;BME280;2967;51.488;6.618;2023-02-11T20:38:36;103448.53;;;9.67;100.00
5883;BME280;2967;51.488;6.618;2023-02-11T20:43:39;103456.53;;;9.65;100.00
5883;BME280;2967;51.488;6.618;2023-02-11T20:48:43;103454.81;;;9.61;100.00
5883;BME280;2967;51.488;6.618;2023-02-11T20:53:47;103464.47;;;9.64;100.00
5883;BME280;2967;51.488;6.618;2023-02-11T20:58:52;103463.78;;;9.54;100.00
5883;BME280;2967;51.488;6.618;2023-02-11T21:03:57;103476.69;;;9.71;100.00
5883;BME280;2967;51.488;6.618;2023-02-11T21:08:59;103481.06;;;9.72;100.00
5883;BME280;2967;51.488;6.618;2023-02-11T21:14:03;103487.34;;;9.65;100.00
5883;BME280;2967;51.488;6.618;2023-02-11T21:19:07;103500.72;;;9.57;100.00
5883;BME280;2967;51.488;6.618;2023-02-11T21:24:10;103498.91;;;9.59;100.00
5883;BME280;2967;51.488;6.618;2023-02-11T21:29:13;103488.47;;;9.53;100.00
5883;BME280;2967;51.488;6.618;2023-02-11T21:34:17;103482.16;;;9.60;100.00
5883;BME280;2967;51.488;6.618;2023-02-11T21:39:20;103496.09;;;9.68;100.00
5883;BME280;2967;51.488;6.618;2023-02-11T21:44:23;103491.72;;;9.67;100.00
5883;BME280;2967;51.488;6.618;2023-02-11T21:49:26;103502.28;;;9.69;100.00
5883;BME280;2967;51.488;6.618;2023-02-11T21:54:30;103494.44;;;9.63;100.00
5883;BME280;2967;51.488;6.618;2023-02-11T21:59:33;103497.06;;;9.64;100.00
5883;BME280;2967;51.488;6.618;2023-02-11T22:04:37;103493.47;;;9.67;100.00
5883;BME280;2967;51.488;6.618;2023-02-11T22:09:40;103501.16;;;9.82;100.00
5883;BME280;2967;51.488;6.618;2023-02-11T22:14:43;103499.38;;;9.82;100.00
5883;BME280;2967;51.488;6.618;2023-02-11T22:19:48;103469.75;;;9.64;100.00
5883;BME280;2967;51.488;6.618;2023-02-11T22:24:51;103502.13;;;9.76;100.00
5883;BME280;2967;51.488;6.618;2023-02-11T22:29:54;103486.19;;;9.79;100.00
5883;BME280;2967;51.488;6.618;2023-02-11T22:34:58;103499.41;;;9.81;100.00
5883;BME280;2967;51.488;6.618;2023-02-11T22:40:01;103498.84;;;9.64;100.00
5883;BME280;2967;51.488;6.618;2023-02-11T22:45:04;103506.69;;;9.67;100.00
5883;BME280;2967;51.488;6.618;2023-02-11T22:50:09;103509.19;;;9.76;100.00
5883;BME280;2967;51.488;6.618;2023-02-11T22:55:12;103500.47;;;9.72;100.00
5883;BME280;2967;51.488;6.618;2023-02-11T23:00:16;103517.16;;;9.73;100.00
5883;BME280;2967;51.488;6.618;2023-02-11T23:05:20;103507.50;;;9.70;100.00
5883;BME280;2967;51.488;6.618;2023-02-11T23:10:23;103512.84;;;9.69;100.00
5883;BME280;2967;51.488;6.618;2023-02-11T23:15:26;103525.09;;;9.74;100.00
5883;BME280;2967;51.488;6.618;2023-02-11T23:20:29;103511.06;;;9.69;100.00
5883;BME280;2967;51.488;6.618;2023-02-11T23:25:32;103521.94;;;9.51;100.00
5883;BME280;2967;51.488;6.618;2023-02-11T23:30:35;103520.94;;;9.60;100.00
5883;BME280;2967;51.488;6.618;2023-02-11T23:35:39;103527.91;;;9.64;100.00
5883;BME280;2967;51.488;6.618;2023-02-11T23:40:42;103527.81;;;9.70;100.00
5883;BME280;2967;51.488;6.618;2023-02-11T23:45:46;103535.69;;;9.71;100.00
5883;BME280;2967;51.488;6.618;2023-02-11T23:50:50;103538.53;;;9.62;100.00
5883;BME280;2967;51.488;6.618;2023-02-11T23:55:53;103529.69;;;9.63;100.00
